Time;durP1;ratioP1;P1;durP2;ratioP2;P2;SDS_P1;SDS_P2;PMS_P1;PMS_P2;Temp;Humidity;BMP_temperature;BMP_pressure;BME280_temperature;BME280_humidity;BME280_pressure;Samples;Min_cycle;Max_cycle;Signal;HPM_P1;HPM_P2
2022/06/05 00:02:10;;;;;;;2.85;1.27;;;26.10;50.10;;;;;;5034252;28;20916;-46
2022/06/05 00:05:07;;;;;;;2.90;1.17;;;26.10;50.10;;;;;;5024682;28;20204;-46
2022/06/05 00:07:51;;;;;;;1.95;1.08;;;26.10;50.10;;;;;;5031106;28;20100;-46
2022/06/05 00:10:17;;;;;;;3.33;1.60;;;26.10;50.30;;;;;;5031397;28;20559;-47
2022/06/05 00:12:57;;;;;;;3.08;1.38;;;26.10;50.20;;;;;;5034317;28;20052;-46
2022/06/05 00:15:23;;;;;;;2.55;1.30;;;26.10;50.20;;;;;;5033703;28;20135;-47
2022/06/05 00:17:49;;;;;;;3.65;1.25;;;26.10;50.10;;;;;;5022811;28;20053;-46
2022/06/05 00:20:15;;;;;;;2.65;1.20;;;26.10;50.00;;;;;;5034082;28;20499;-47
2022/06/05 00:22:41;;;;;;;6.18;1.65;;;26.10;50.00;;;;;;5025072;28;20032;-47
2022/06/05 00:25:10;;;;;;;2.92;1.10;;;26.10;50.10;;;;;;5029737;28;20056;-45
2022/06/05 00:27:48;;;;;;;2.20;1.20;;;26.00;50.00;;;;;;5033952;28;20044;-46
2022/06/05 00:30:21;;;;;;;3.35;1.20;;;26.00;50.00;;;;;;5033730;28;20547;-47
2022/06/05 00:33:35;;;;;;;3.42;1.33;;;26.00;50.00;;;;;;5033993;28;20021;-46
2022/06/05 00:36:19;;;;;;;1.73;0.95;;;26.00;50.00;;;;;;5005441;28;20042;-47
2022/06/05 00:39:23;;;;;;;3.05;1.40;;;26.00;50.00;;;;;;5015495;28;20021;-46
2022/06/05 00:41:55;;;;;;;2.58;1.50;;;26.00;50.10;;;;;;5008280;28;20043;-46
2022/06/05 00:44:32;;;;;;;2.83;1.30;;;26.00;50.10;;;;;;5032137;28;20072;-45
2022/06/05 00:46:59;;;;;;;3.30;1.33;;;26.00;50.20;;;;;;5030392;28;20026;-47
2022/06/05 00:49:33;;;;;;;2.00;1.10;;;26.00;50.20;;;;;;5033305;28;20036;-47
2022/06/05 00:51:59;;;;;;;3.05;1.40;;;26.00;50.30;;;;;;5032308;28;20029;-47
2022/06/05 00:54:25;;;;;;;2.50;1.35;;;26.00;50.20;;;;;;5032459;28;20036;-46
2022/06/05 00:56:51;;;;;;;2.60;1.25;;;26.00;50.20;;;;;;5033702;28;20029;-46
2022/06/05 00:59:20;;;;;;;2.08;1.13;;;26.00;50.20;;;;;;5033527;28;20055;-47
2022/06/05 01:01:47;;;;;;;2.17;0.98;;;26.00;50.30;;;;;;5033725;28;20048;-46
2022/06/05 01:04:13;;;;;;;2.10;1.13;;;26.00;50.10;;;;;;5023886;28;20033;-47
2022/06/05 01:06:39;;;;;;;3.42;1.35;;;26.00;50.10;;;;;;5033425;28;20029;-45
2022/06/05 01:09:05;;;;;;;2.60;1.20;;;26.00;50.20;;;;;;5023138;28;20032;-47
2022/06/05 01:12:00;;;;;;;3.53;1.65;;;26.00;50.10;;;;;;5034446;28;20455;-46
2022/06/05 01:14:40;;;;;;;9.50;1.55;;;26.00;50.20;;;;;;5023837;28;20029;-46
2022/06/05 01:17:17;;;;;;;2.67;1.20;;;26.00;50.10;;;;;;5031842;28;20022;-46
2022/06/05 01:20:07;;;;;;;3.15;1.20;;;26.00;50.10;;;;;;5032197;28;20555;-46
2022/06/05 01:22:48;;;;;;;2.22;1.02;;;26.00;50.10;;;;;;5025461;28;20032;-46
2022/06/05 01:25:42;;;;;;;1.77;1.00;;;25.90;49.80;;;;;;5032096;28;20074;-46
2022/06/05 01:28:14;;;;;;;2.13;1.33;;;25.90;49.80;;;;;;5032581;28;20053;-46
2022/06/05 01:30:51;;;;;;;2.00;1.13;;;26.00;50.30;;;;;;5033207;28;20098;-44
2022/06/05 01:33:22;;;;;;;1.60;1.00;;;25.90;49.70;;;;;;5032829;28;20032;-46
2022/06/05 01:36:20;;;;;;;2.85;1.17;;;25.90;49.90;;;;;;5032011;28;20052;-45
2022/06/05 01:38:53;;;;;;;5.50;1.52;;;25.90;49.90;;;;;;5031602;28;20025;-45
2022/06/05 01:41:34;;;;;;;2.85;1.48;;;25.90;49.90;;;;;;5031285;28;20025;-46
2022/06/05 01:44:05;;;;;;;1.77;1.08;;;25.90;50.00;;;;;;5032389;28;20025;-45
2022/06/05 01:46:35;;;;;;;2.63;1.27;;;25.90;50.00;;;;;;5031111;28;20054;-46
2022/06/05 01:49:25;;;;;;;2.25;1.15;;;25.90;50.00;;;;;;5022267;28;20018;-46
2022/06/05 01:52:07;;;;;;;2.10;1.10;;;25.90;50.10;;;;;;5031342;28;20563;-46
2022/06/05 01:54:40;;;;;;;2.17;1.00;;;25.90;49.90;;;;;;5032390;28;20534;-46
2022/06/05 01:57:09;;;;;;;;;;;25.90;49.90;;;;;;5032832;28;20063;-46
2022/06/05 01:59:38;;;;;;;2.28;1.23;;;25.90;50.50;;;;;;5031012;28;19905;-46
2022/06/05 02:02:08;;;;;;;2.33;1.38;;;25.90;49.90;;;;;;5022530;28;20097;-46
2022/06/05 02:04:37;;;;;;;2.42;1.05;;;25.90;49.80;;;;;;5032894;28;20017;-46
2022/06/05 02:07:29;;;;;;;3.38;1.17;;;25.90;49.80;;;;;;5022854;28;20028;-47
2022/06/05 02:10:05;;;;;;;5.72;1.80;;;25.90;49.90;;;;;;4997684;28;20386;-46
2022/06/05 02:12:32;;;;;;;2.60;1.13;;;25.90;50.10;;;;;;5030810;28;20030;-47
2022/06/05 02:14:58;;;;;;;2.00;1.20;;;25.90;49.80;;;;;;5033131;28;20100;-48
2022/06/05 02:17:23;;;;;;;1.70;0.98;;;25.90;50.60;;;;;;5032086;28;20105;-46
2022/06/05 02:19:50;;;;;;;2.00;1.10;;;25.90;50.00;;;;;;5032721;28;20017;-47
2022/06/05 02:22:26;;;;;;;3.95;1.13;;;25.90;49.90;;;;;;5022703;28;20022;-45
2022/06/05 02:24:53;;;;;;;2.17;0.90;;;25.80;50.00;;;;;;5032807;28;20112;-46
2022/06/05 02:27:24;;;;;;;2.03;1.10;;;25.90;50.00;;;;;;5032178;28;20029;-45
2022/06/05 02:29:51;;;;;;;2.88;1.17;;;25.90;50.00;;;;;;5032687;28;20087;-45
2022/06/05 02:32:28;;;;;;;2.72;1.30;;;25.90;50.00;;;;;;5032483;28;20025;-46
2022/06/05 02:35:20;;;;;;;3.83;1.42;;;25.90;50.10;;;;;;5030988;28;20701;-46
2022/06/05 02:38:22;;;;;;;2.13;1.05;;;25.80;50.10;;;;;;5022666;28;20447;-46
2022/06/05 02:41:12;;;;;;;2.15;1.15;;;25.80;50.00;;;;;;5033766;28;20420;-46
2022/06/05 02:46:52;;;;;;;1.45;0.93;;;25.80;49.90;;;;;;5035100;28;20096;-46
2022/06/05 02:49:42;;;;;;;3.45;1.33;;;25.80;49.90;;;;;;5034286;28;20076;-46
2022/06/05 02:52:09;;;;;;;2.40;1.10;;;25.80;49.90;;;;;;5035441;28;20025;-46
2022/06/05 02:54:41;;;;;;;2.92;1.88;;;25.80;49.90;;;;;;5035946;28;20057;-47
2022/06/05 02:57:07;;;;;;;2.30;1.20;;;25.80;49.80;;;;;;5034130;28;20075;-47
2022/06/05 02:59:33;;;;;;;2.13;1.00;;;25.80;49.80;;;;;;5036747;28;20029;-47
2022/06/05 03:04:43;;;;;;;2.03;1.02;;;25.80;49.90;;;;;;5036362;28;20123;-47
2022/06/05 03:07:08;;;;;;;4.13;1.40;;;25.80;49.90;;;;;;5036092;28;20077;-47
2022/06/05 03:09:35;;;;;;;1.77;1.02;;;25.80;49.90;;;;;;5035476;28;20017;-47
2022/06/05 03:12:01;;;;;;;2.83;1.23;;;25.80;49.90;;;;;;5033160;28;20116;-45
2022/06/05 03:14:27;;;;;;;1.80;1.10;;;25.80;49.90;;;;;;5036236;28;20512;-46
2022/06/05 03:16:53;;;;;;;2.95;1.23;;;25.80;49.90;;;;;;5035160;28;20094;-46
2022/06/05 03:19:19;;;;;;;2.13;1.00;;;25.80;50.00;;;;;;5033757;28;20021;-44
2022/06/05 03:21:44;;;;;;;2.38;1.25;;;25.80;50.00;;;;;;5035520;28;20032;-46
2022/06/05 03:24:10;;;;;;;1.75;1.10;;;25.80;49.90;;;;;;5036349;28;20098;-46
2022/06/05 03:26:36;;;;;;;2.58;1.48;;;25.80;50.00;;;;;;5035468;28;20131;-47
2022/06/05 03:29:03;;;;;;;2.60;1.20;;;25.80;50.00;;;;;;5032895;28;20032;-46
2022/06/05 03:31:29;;;;;;;4.38;1.63;;;25.80;49.90;;;;;;5033286;28;20056;-45
2022/06/05 03:33:55;;;;;;;2.33;1.30;;;25.80;49.90;;;;;;5007632;28;20030;-47
2022/06/05 03:36:21;;;;;;;2.05;1.10;;;25.80;49.80;;;;;;5034093;28;20029;-47
2022/06/05 03:38:47;;;;;;;2.80;1.10;;;25.80;49.80;;;;;;5035078;28;20013;-46
2022/06/05 03:41:17;;;;;;;2.33;1.17;;;25.80;49.80;;;;;;5029811;28;20034;-45
2022/06/05 03:43:43;;;;;;;2.55;1.38;;;25.80;49.80;;;;;;5007474;28;20010;-47
2022/06/05 03:46:12;;;;;;;2.50;1.05;;;25.80;49.80;;;;;;5033487;28;20091;-46
2022/06/05 03:48:38;;;;;;;2.63;1.30;;;25.80;49.70;;;;;;5034543;28;20032;-46
2022/06/05 03:51:10;;;;;;;2.15;1.38;;;25.80;49.70;;;;;;5032418;28;20083;-46
2022/06/05 03:53:36;;;;;;;3.50;1.38;;;25.80;49.70;;;;;;5030093;28;20069;-46
2022/06/05 03:56:06;;;;;;;2.47;1.30;;;25.80;49.70;;;;;;5032351;28;20025;-46
2022/06/05 03:58:32;;;;;;;4.15;1.50;;;25.80;49.80;;;;;;5033811;28;20025;-46
2022/06/05 04:00:57;;;;;;;2.97;1.30;;;25.80;49.80;;;;;;5034458;28;20018;-47
2022/06/05 04:03:23;;;;;;;2.63;1.35;;;25.80;49.80;;;;;;5024867;28;20753;-46
2022/06/05 04:05:49;;;;;;;3.10;1.45;;;25.80;49.80;;;;;;5034167;28;20030;-46
2022/06/05 04:08:16;;;;;;;3.15;1.45;;;25.80;49.80;;;;;;5024355;28;20093;-47
2022/06/05 04:10:43;;;;;;;2.08;1.13;;;25.80;49.80;;;;;;5034400;28;20116;-47
2022/06/05 04:13:09;;;;;;;2.33;1.27;;;25.80;49.80;;;;;;5034480;28;20060;-46
2022/06/05 04:15:41;;;;;;;2.75;1.15;;;25.80;49.80;;;;;;5034508;28;20737;-45
2022/06/05 04:18:08;;;;;;;1.90;1.10;;;25.80;49.80;;;;;;5033152;28;20135;-46
2022/06/05 04:20:38;;;;;;;3.15;1.20;;;25.80;49.80;;;;;;5034141;28;20030;-47
2022/06/05 04:23:04;;;;;;;2.50;1.35;;;25.80;49.80;;;;;;5032894;28;20017;-46
2022/06/05 04:25:30;;;;;;;1.77;1.00;;;25.80;49.70;;;;;;5027205;28;21609;-45
2022/06/05 04:27:56;;;;;;;1.80;1.13;;;25.80;49.70;;;;;;5023904;28;20029;-47
2022/06/05 04:30:26;;;;;;;2.45;1.50;;;25.80;49.70;;;;;;5032810;28;20022;-46
2022/06/05 04:32:52;;;;;;;2.90;1.27;;;25.80;49.60;;;;;;5023585;28;20594;-47
2022/06/05 04:35:18;;;;;;;2.17;1.25;;;25.80;49.60;;;;;;5034291;28;20163;-46
2022/06/05 04:37:43;;;;;;;2.25;1.20;;;25.80;49.70;;;;;;5033675;28;20036;-45
2022/06/05 04:40:10;;;;;;;2.70;1.40;;;25.80;49.70;;;;;;5033399;28;20615;-46
2022/06/05 04:42:36;;;;;;;3.10;1.55;;;25.70;49.70;;;;;;5032180;28;20122;-46
2022/06/05 04:45:03;;;;;;;2.05;1.30;;;25.80;49.80;;;;;;5023534;28;20055;-46
2022/06/05 04:47:29;;;;;;;2.38;1.55;;;25.80;49.80;;;;;;5033283;28;20037;-44
2022/06/05 04:49:55;;;;;;;3.03;1.80;;;25.70;49.80;;;;;;5023629;28;20041;-47
2022/06/05 04:52:21;;;;;;;3.00;1.70;;;25.70;49.80;;;;;;5033262;28;20052;-46
2022/06/05 04:54:46;;;;;;;3.00;1.70;;;25.80;49.90;;;;;;5033543;28;20100;-45
2022/06/05 04:57:12;;;;;;;3.00;1.85;;;25.70;50.00;;;;;;5032840;28;20528;-46
2022/06/05 04:59:38;;;;;;;2.83;1.85;;;25.70;49.90;;;;;;5023260;28;20029;-47
2022/06/05 05:02:03;;;;;;;3.28;2.20;;;25.80;50.00;;;;;;5032887;28;20022;-46
2022/06/05 05:04:29;;;;;;;3.40;2.17;;;25.80;50.00;;;;;;5022743;28;20031;-47
2022/06/05 05:06:55;;;;;;;4.97;2.85;;;25.70;50.00;;;;;;5015861;28;20687;-45
2022/06/05 05:09:21;;;;;;;6.07;3.30;;;25.80;50.00;;;;;;5022572;28;20111;-45
2022/06/05 05:11:47;;;;;;;3.72;2.60;;;25.80;50.00;;;;;;5032957;28;20052;-46
2022/06/05 05:14:12;;;;;;;3.72;2.70;;;25.80;50.00;;;;;;5032770;28;20026;-46
2022/06/05 05:16:39;;;;;;;3.53;2.47;;;25.80;50.00;;;;;;5023312;28;20627;-47
2022/06/05 05:19:05;;;;;;;3.72;2.65;;;25.70;49.90;;;;;;5032994;28;20252;-47
2022/06/05 05:21:30;;;;;;;4.00;3.05;;;25.80;50.00;;;;;;5022911;28;20028;-49
2022/06/05 05:23:57;;;;;;;4.55;3.83;;;25.80;49.90;;;;;;5029991;28;20392;-48
2022/06/05 05:26:29;;;;;;;5.30;4.80;;;25.80;50.90;;;;;;5035034;28;20507;-48
2022/06/05 05:28:56;;;;;;;7.13;6.43;;;25.80;51.20;;;;;;5032076;28;20029;-47
2022/06/05 05:31:36;;;;;;;7.03;6.13;;;25.80;51.60;;;;;;5033690;28;20024;-48
2022/06/05 05:34:03;;;;;;;6.53;5.30;;;25.80;51.60;;;;;;5033160;28;20025;-50
2022/06/05 05:36:29;;;;;;;7.47;6.38;;;25.80;51.40;;;;;;5032426;28;20025;-49
2022/06/05 05:44:25;;;;;;;7.93;7.22;;;25.80;51.50;;;;;;5034475;28;20031;-48
2022/06/05 05:46:51;;;;;;;7.53;6.82;;;25.80;52.00;;;;;;5024898;28;20029;-48
2022/06/05 05:49:17;;;;;;;8.43;7.63;;;25.80;51.50;;;;;;5022993;28;20073;-50
2022/06/05 05:51:43;;;;;;;7.20;6.60;;;25.80;51.70;;;;;;5031816;28;20067;-48
2022/06/05 05:54:10;;;;;;;7.97;7.25;;;25.80;51.60;;;;;;5032647;28;20037;-49
2022/06/05 05:56:36;;;;;;;7.07;6.38;;;25.80;51.80;;;;;;5031766;28;20397;-50
2022/06/05 05:59:02;;;;;;;7.72;7.03;;;25.80;51.40;;;;;;5026552;28;20059;-49
2022/06/05 06:01:28;;;;;;;8.60;6.55;;;25.80;51.90;;;;;;5024147;28;20628;-48
2022/06/05 06:03:54;;;;;;;7.80;7.00;;;25.80;51.50;;;;;;5004067;28;20120;-46
2022/06/05 06:06:26;;;;;;;7.80;7.00;;;25.80;52.30;;;;;;5004377;28;20472;-48
2022/06/05 06:08:52;;;;;;;7.72;7.03;;;25.80;52.30;;;;;;5003874;28;20041;-48
2022/06/05 06:11:18;;;;;;;7.75;7.05;;;25.80;52.50;;;;;;5011506;28;20068;-46
2022/06/05 06:13:44;;;;;;;7.53;6.82;;;25.80;52.30;;;;;;5023776;28;20056;-47
2022/06/05 06:16:10;;;;;;;8.02;6.95;;;25.80;51.60;;;;;;5025339;28;20076;-47
2022/06/05 06:18:36;;;;;;;8.35;5.97;;;25.90;51.50;;;;;;5027411;28;20029;-49
2022/06/05 06:21:02;;;;;;;7.28;6.53;;;25.80;51.50;;;;;;5027291;28;20029;-48
2022/06/05 06:23:27;;;;;;;7.28;6.57;;;25.80;51.60;;;;;;5027405;28;20053;-47
2022/06/05 06:25:53;;;;;;;7.97;7.15;;;25.80;51.80;;;;;;5027049;28;20119;-48
2022/06/05 06:28:19;;;;;;;8.43;7.57;;;25.80;52.00;;;;;;5027069;28;20068;-48
2022/06/05 06:30:45;;;;;;;8.00;7.20;;;25.80;51.80;;;;;;5026632;28;20041;-47
2022/06/05 06:33:11;;;;;;;8.02;7.32;;;25.80;52.00;;;;;;5027501;28;20503;-47
2022/06/05 06:35:37;;;;;;;7.88;7.18;;;25.90;52.00;;;;;;5027573;28;20133;-48
2022/06/05 06:38:04;;;;;;;7.53;6.82;;;25.90;52.00;;;;;;5009593;28;20654;-48
2022/06/05 06:40:30;;;;;;;9.02;8.13;;;25.90;51.80;;;;;;5026911;28;20033;-49
2022/06/05 06:42:56;;;;;;;8.65;7.85;;;25.90;52.00;;;;;;5026913;28;20647;-48
2022/06/05 06:45:22;;;;;;;7.68;6.95;;;25.90;52.00;;;;;;5026957;28;20629;-46
2022/06/05 06:47:48;;;;;;;8.57;7.70;;;25.90;51.70;;;;;;5026483;28;20033;-47
2022/06/05 06:50:15;;;;;;;8.93;8.02;;;25.90;51.80;;;;;;5015055;28;20038;-47
2022/06/05 06:52:41;;;;;;;8.30;7.50;;;25.90;51.50;;;;;;5006922;28;20713;-46
2022/06/05 06:55:08;;;;;;;8.05;7.35;;;25.90;52.40;;;;;;5010245;28;20064;-47
2022/06/05 06:57:34;;;;;;;8.60;7.70;;;25.90;51.40;;;;;;5026174;28;20060;-48
2022/06/05 07:00:00;;;;;;;8.40;7.55;;;25.90;51.30;;;;;;5025701;28;20029;-47
2022/06/05 07:02:26;;;;;;;8.65;7.85;;;25.90;51.20;;;;;;5025937;28;20432;-47
2022/06/05 07:04:51;;;;;;;7.75;7.05;;;25.90;51.10;;;;;;5025584;28;20022;-46
2022/06/05 07:07:17;;;;;;;7.65;6.90;;;25.90;51.10;;;;;;5026488;28;20125;-46
2022/06/05 07:09:43;;;;;;;7.53;6.72;;;25.90;51.00;;;;;;5008713;28;20338;-47
2022/06/05 07:12:08;;;;;;;7.85;7.05;;;25.90;51.00;;;;;;5007834;28;20039;-48
2022/06/05 07:14:34;;;;;;;6.90;6.30;;;25.90;51.00;;;;;;5025591;28;20088;-48
2022/06/05 07:17:00;;;;;;;8.02;7.32;;;25.90;51.00;;;;;;5026216;28;20064;-45
2022/06/05 07:19:26;;;;;;;8.02;7.25;;;25.90;50.90;;;;;;5025293;28;20195;-48
2022/06/05 07:21:51;;;;;;;7.60;6.90;;;25.90;50.90;;;;;;5026023;28;20033;-48
2022/06/05 07:24:18;;;;;;;7.38;6.68;;;25.90;50.90;;;;;;5025617;28;20052;-47
2022/06/05 07:26:44;;;;;;;8.00;7.30;;;25.90;50.90;;;;;;5034654;28;20021;-48
2022/06/05 07:29:10;;;;;;;8.55;7.60;;;25.90;50.80;;;;;;5027403;28;20032;-47
2022/06/05 07:31:36;;;;;;;7.80;7.03;;;25.90;51.10;;;;;;5018926;28;20033;-47
2022/06/05 07:34:02;;;;;;;8.18;7.38;;;25.90;50.90;;;;;;5013697;28;20025;-46
2022/06/05 07:36:29;;;;;;;6.68;6.07;;;25.90;50.90;;;;;;5027710;28;20032;-47
2022/06/05 07:38:55;;;;;;;6.53;5.93;;;25.90;50.90;;;;;;5024654;28;20032;-47
2022/06/05 07:41:27;;;;;;;7.80;6.90;;;25.90;51.30;;;;;;5006842;28;20104;-47
2022/06/05 07:43:54;;;;;;;7.28;6.57;;;25.90;51.40;;;;;;5017454;28;20032;-48
2022/06/05 07:46:20;;;;;;;7.15;6.25;;;25.90;51.50;;;;;;5025531;28;20056;-45
2022/06/05 07:48:47;;;;;;;6.95;6.25;;;25.90;51.40;;;;;;5025056;28;20493;-45
2022/06/05 07:56:50;;;;;;;8.18;7.38;;;26.00;52.10;;;;;;5019173;28;20064;-48
2022/06/05 07:59:16;;;;;;;8.70;7.90;;;25.90;50.90;;;;;;5019135;28;20445;-47
2022/06/05 08:01:42;;;;;;;9.15;8.23;;;25.90;51.30;;;;;;5024473;28;20488;-47
2022/06/05 08:04:08;;;;;;;7.80;7.10;;;25.90;51.30;;;;;;5024797;28;20034;-47
2022/06/05 08:06:34;;;;;;;7.65;6.95;;;25.80;51.30;;;;;;5024654;28;20037;-46
2022/06/05 08:09:05;;;;;;;7.80;7.00;;;25.80;51.40;;;;;;5024483;28;20029;-47
2022/06/05 08:11:32;;;;;;;7.65;6.95;;;25.80;51.40;;;;;;5024834;28;20612;-47
2022/06/05 08:13:59;;;;;;;7.63;6.93;;;25.80;51.70;;;;;;5023640;28;20168;-47
2022/06/05 08:16:24;;;;;;;8.10;7.30;;;25.70;51.80;;;;;;5022996;28;20123;-47
2022/06/05 08:18:54;;;;;;;8.40;7.53;;;25.70;51.90;;;;;;5023457;28;20497;-47
2022/06/05 08:21:21;;;;;;;7.60;6.80;;;25.70;51.60;;;;;;5023826;28;20057;-46
2022/06/05 08:23:47;;;;;;;7.40;6.70;;;25.60;52.10;;;;;;5023602;28;20105;-47
2022/06/05 08:26:13;;;;;;;7.45;6.75;;;25.60;52.70;;;;;;5020247;28;20109;-47
2022/06/05 08:28:39;;;;;;;7.47;6.78;;;25.60;51.80;;;;;;5024273;28;20053;-45
2022/06/05 08:31:05;;;;;;;7.55;6.85;;;25.50;51.90;;;;;;5018565;28;20076;-46
2022/06/05 08:33:30;;;;;;;6.72;6.07;;;25.50;52.40;;;;;;5021339;28;20044;-46
2022/06/05 08:35:56;;;;;;;6.70;6.10;;;25.40;52.30;;;;;;5025827;28;20096;-46
2022/06/05 08:41:33;;;;;;;7.18;6.50;;;25.30;53.10;;;;;;5031994;28;20025;-46
2022/06/05 08:44:11;;;;;;;7.13;6.43;;;25.30;53.50;;;;;;5032285;28;20692;-46
2022/06/05 08:47:11;;;;;;;7.13;6.43;;;25.20;54.30;;;;;;5030087;28;20040;-46
2022/06/05 08:49:46;;;;;;;7.20;6.47;;;25.20;54.10;;;;;;5027874;28;20080;-46
2022/06/05 08:52:18;;;;;;;6.40;5.78;;;25.20;53.50;;;;;;5018122;28;20025;-46
2022/06/05 08:54:53;;;;;;;6.93;6.32;;;25.10;54.00;;;;;;5018915;28;20037;-46
2022/06/05 08:57:31;;;;;;;6.10;5.50;;;25.10;54.90;;;;;;5014239;28;20025;-47
2022/06/05 09:00:02;;;;;;;6.75;6.15;;;25.00;54.50;;;;;;5016934;28;20501;-48
2022/06/05 09:02:43;;;;;;;6.25;5.65;;;25.00;54.30;;;;;;5020733;28;20022;-46
2022/06/05 09:05:34;;;;;;;6.43;5.82;;;25.00;54.20;;;;;;5017477;28;20500;-46
2022/06/05 09:08:05;;;;;;;6.43;5.78;;;25.00;53.00;;;;;;5008642;28;20037;-47
2022/06/05 09:10:49;;;;;;;7.15;6.13;;;24.90;53.50;;;;;;5019407;28;20021;-46
2022/06/05 09:13:18;;;;;;;6.15;5.40;;;24.90;54.40;;;;;;5022070;28;20718;-47
2022/06/05 09:16:05;;;;;;;6.72;6.13;;;24.90;54.60;;;;;;5002240;28;20028;-45
2022/06/05 09:18:39;;;;;;;6.55;5.68;;;24.90;54.70;;;;;;5019207;28;20079;-45
2022/06/05 09:21:23;;;;;;;6.63;6.03;;;24.90;54.30;;;;;;5002213;28;20041;-45
2022/06/05 09:24:20;;;;;;;6.50;5.90;;;24.90;53.50;;;;;;5020649;28;20088;-45
2022/06/05 09:26:54;;;;;;;6.57;5.82;;;24.80;55.00;;;;;;5018005;28;20075;-45
2022/06/05 09:29:29;;;;;;;6.68;5.70;;;24.80;55.50;;;;;;5019519;28;20035;-47
2022/06/05 09:31:54;;;;;;;6.35;5.75;;;24.80;55.40;;;;;;5020414;28;20571;-47
2022/06/05 09:34:44;;;;;;;6.85;6.20;;;24.80;55.80;;;;;;5021925;28;20057;-48
2022/06/05 09:37:32;;;;;;;6.43;5.72;;;24.80;54.70;;;;;;5018888;28;20109;-43
2022/06/05 09:40:14;;;;;;;5.45;4.95;;;24.80;55.60;;;;;;5014684;28;20021;-46
2022/06/05 09:42:55;;;;;;;7.00;6.10;;;24.80;56.10;;;;;;5016197;28;20029;-47
2022/06/05 09:45:58;;;;;;;6.70;6.03;;;24.80;56.60;;;;;;5015366;28;20529;-44
2022/06/05 09:48:23;;;;;;;6.68;5.78;;;24.80;56.50;;;;;;5018222;28;20457;-45
2022/06/05 09:50:49;;;;;;;7.28;6.57;;;24.80;56.30;;;;;;5021514;28;20122;-46
2022/06/05 09:53:21;;;;;;;6.68;6.07;;;24.90;57.60;;;;;;5023273;28;20064;-50
2022/06/05 09:56:14;;;;;;;6.93;6.27;;;24.90;56.60;;;;;;5012136;28;20122;-50
2022/06/05 09:58:47;;;;;;;7.25;6.38;;;24.90;56.50;;;;;;5021445;28;20084;-48
2022/06/05 10:01:33;;;;;;;6.85;6.15;;;24.90;56.90;;;;;;5020903;28;20026;-48
2022/06/05 10:04:03;;;;;;;6.57;5.93;;;25.00;56.40;;;;;;5012898;28;20024;-49
2022/06/05 10:06:43;;;;;;;6.78;6.07;;;25.00;56.60;;;;;;5017587;28;20084;-49
2022/06/05 10:09:15;;;;;;;6.57;5.95;;;25.00;56.40;;;;;;5022685;28;20025;-47
2022/06/05 10:12:11;;;;;;;5.47;4.97;;;25.10;56.10;;;;;;5022531;28;20619;-47
2022/06/05 10:15:14;;;;;;;5.97;5.38;;;25.10;56.00;;;;;;5022971;28;20660;-47
2022/06/05 10:17:56;;;;;;;6.22;5.63;;;25.20;55.60;;;;;;5000253;28;20570;-47
2022/06/05 10:20:39;;;;;;;6.20;5.57;;;25.20;55.20;;;;;;5032405;28;20432;-46
2022/06/05 10:23:22;;;;;;;6.40;5.80;;;25.20;55.40;;;;;;5031219;28;20021;-48
2022/06/05 10:26:02;;;;;;;6.00;5.25;;;25.30;55.50;;;;;;5029566;28;20026;-48
2022/06/05 10:28:31;;;;;;;5.28;4.78;;;25.30;55.10;;;;;;5029830;28;20033;-48
2022/06/05 10:31:19;;;;;;;5.22;4.70;;;25.30;55.00;;;;;;5022124;28;20534;-47
2022/06/05 10:33:53;;;;;;;5.03;4.53;;;25.30;54.60;;;;;;5029756;28;20017;-47
2022/06/05 10:36:24;;;;;;;6.05;4.47;;;25.40;54.30;;;;;;5030922;28;20029;-47
2022/06/05 10:39:00;;;;;;;4.82;4.32;;;25.40;54.30;;;;;;5030237;28;20697;-48
2022/06/05 10:41:48;;;;;;;5.30;4.78;;;25.40;54.20;;;;;;5030650;28;20043;-48
2022/06/05 10:44:19;;;;;;;4.90;4.40;;;25.40;54.10;;;;;;5032187;28;20040;-48
2022/06/05 10:47:12;;;;;;;6.03;5.45;;;25.50;53.70;;;;;;5029669;28;20032;-47
2022/06/05 10:50:05;;;;;;;5.80;4.73;;;25.50;54.00;;;;;;5030156;28;20544;-46
2022/06/05 10:52:38;;;;;;;5.78;4.40;;;25.50;54.10;;;;;;5030373;28;20271;-47
2022/06/05 10:55:19;;;;;;;5.45;4.90;;;25.60;53.80;;;;;;5023715;28;20460;-47
2022/06/05 10:58:26;;;;;;;5.75;4.93;;;25.60;53.90;;;;;;5031186;28;20118;-47
2022/06/05 11:01:23;;;;;;;4.90;4.38;;;25.60;54.00;;;;;;5030616;28;20159;-47
2022/06/05 11:04:23;;;;;;;5.85;4.68;;;25.60;53.80;;;;;;5034028;28;20117;-46
2022/06/05 11:07:04;;;;;;;5.82;5.05;;;25.60;54.00;;;;;;5031207;28;20043;-47
2022/06/05 11:09:46;;;;;;;5.40;4.57;;;25.70;54.10;;;;;;5026018;28;20041;-48
2022/06/05 11:15:36;;;;;;;6.07;5.10;;;25.70;55.10;;;;;;5025983;28;20535;-47
2022/06/05 11:18:18;;;;;;;5.85;4.90;;;25.70;55.40;;;;;;5025862;28;20208;-47
2022/06/05 11:20:55;;;;;;;6.10;5.20;;;25.80;55.10;;;;;;5026317;28;20052;-46
2022/06/05 11:23:28;;;;;;;5.18;4.43;;;25.80;55.10;;;;;;5026261;28;20037;-46
2022/06/05 11:26:06;;;;;;;5.65;5.00;;;25.80;55.00;;;;;;5025997;28;20653;-47
2022/06/05 11:28:50;;;;;;;5.10;4.20;;;25.90;54.80;;;;;;5017258;28;20385;-46
2022/06/05 11:31:51;;;;;;;4.78;4.28;;;25.90;54.30;;;;;;5023091;28;20036;-47
2022/06/05 11:34:51;;;;;;;5.80;5.20;;;25.90;55.10;;;;;;5000846;28;20341;-47
2022/06/05 11:37:16;;;;;;;7.80;6.97;;;26.00;55.90;;;;;;5023880;28;20522;-48
2022/06/05 11:39:52;;;;;;;6.30;5.68;;;26.00;57.50;;;;;;5024419;28;20093;-48
2022/06/05 11:42:37;;;;;;;8.88;7.93;;;26.00;56.50;;;;;;5024254;28;20079;-48
2022/06/05 11:45:33;;;;;;;11.05;9.32;;;26.10;61.60;;;;;;5024657;28;20025;-48
2022/06/05 11:48:18;;;;;;;7.20;6.50;;;26.10;60.00;;;;;;5027724;28;20594;-46
2022/06/05 11:51:06;;;;;;;5.95;5.35;;;26.20;57.30;;;;;;5025711;28;20516;-48
2022/06/05 11:54:15;;;;;;;6.30;5.70;;;26.20;56.60;;;;;;5025422;28;20242;-47
2022/06/05 11:57:14;;;;;;;6.05;5.45;;;26.20;56.70;;;;;;5019450;28;20536;-47
2022/06/05 12:00:04;;;;;;;5.78;5.18;;;26.20;56.50;;;;;;5021964;28;20032;-47
2022/06/05 12:02:30;;;;;;;6.35;4.72;;;26.30;55.90;;;;;;5025387;28;20029;-48
2022/06/05 12:05:14;;;;;;;5.47;4.32;;;26.30;55.50;;;;;;5025042;28;20022;-46
2022/06/05 12:07:41;;;;;;;5.38;4.88;;;26.30;55.20;;;;;;5025711;28;20143;-48
2022/06/05 12:10:16;;;;;;;5.85;4.90;;;26.30;54.60;;;;;;5034644;28;20037;-47
2022/06/05 12:12:47;;;;;;;6.28;5.00;;;26.40;55.30;;;;;;5031967;28;20296;-47
2022/06/05 12:15:28;;;;;;;5.25;4.25;;;26.40;55.90;;;;;;5032579;28;20026;-48
2022/06/05 12:18:02;;;;;;;5.38;4.78;;;26.40;55.20;;;;;;5033806;28;20056;-49
2022/06/05 12:20:30;;;;;;;6.40;4.68;;;26.50;55.70;;;;;;5032994;28;20026;-49
2022/06/05 12:23:18;;;;;;;5.75;4.32;;;26.50;55.90;;;;;;5032176;28;20100;-47
2022/06/05 12:26:00;;;;;;;5.20;4.40;;;26.50;54.80;;;;;;5031333;28;20028;-47
2022/06/05 12:28:40;;;;;;;4.80;4.10;;;26.60;54.10;;;;;;5024102;28;20057;-47
2022/06/05 12:31:14;;;;;;;5.10;4.28;;;26.70;53.70;;;;;;5024023;28;20033;-48
2022/06/05 12:33:51;;;;;;;5.90;4.45;;;26.70;53.30;;;;;;5019819;28;20512;-47
2022/06/05 12:36:27;;;;;;;5.53;4.15;;;26.80;53.10;;;;;;5017158;28;20091;-49
2022/06/05 12:39:01;;;;;;;6.00;4.32;;;26.80;53.20;;;;;;5024030;28;20076;-47
2022/06/05 12:41:43;;;;;;;5.05;4.20;;;26.80;53.00;;;;;;5024372;28;20025;-47
2022/06/05 12:44:11;;;;;;;5.22;4.22;;;26.80;52.50;;;;;;5024226;28;20053;-48
2022/06/05 12:46:58;;;;;;;4.40;3.80;;;26.80;52.30;;;;;;5021352;28;20030;-47
2022/06/05 12:49:39;;;;;;;4.60;4.10;;;26.90;52.20;;;;;;5023571;28;20137;-48
2022/06/05 12:52:23;;;;;;;4.55;4.05;;;26.90;52.00;;;;;;5006383;28;20028;-47
2022/06/05 12:55:12;;;;;;;5.05;4.22;;;26.90;51.90;;;;;;5023166;28;20119;-47
2022/06/05 12:57:45;;;;;;;4.82;4.18;;;26.90;51.80;;;;;;5023347;28;20021;-47
2022/06/05 13:00:40;;;;;;;4.70;3.80;;;26.90;51.80;;;;;;5024290;28;20467;-52
2022/06/05 13:03:30;;;;;;;4.38;3.72;;;26.90;51.90;;;;;;5024276;28;20028;-48
2022/06/05 13:06:29;;;;;;;4.65;4.15;;;26.90;51.80;;;;;;5020370;28;20437;-48
2022/06/05 13:08:58;;;;;;;4.03;3.63;;;26.90;52.20;;;;;;4994422;28;20385;-47
2022/06/05 13:11:34;;;;;;;4.68;4.15;;;26.90;52.30;;;;;;5023704;28;20060;-47
2022/06/05 13:14:25;;;;;;;5.65;4.18;;;26.90;52.20;;;;;;5024491;28;20029;-47
2022/06/05 13:16:57;;;;;;;4.43;4.03;;;26.90;52.40;;;;;;5023388;28;20481;-47
2022/06/05 13:19:40;;;;;;;4.80;3.80;;;26.90;52.30;;;;;;5023903;28;20036;-47
2022/06/05 13:22:24;;;;;;;4.80;4.05;;;26.90;52.30;;;;;;5023672;28;20226;-46
2022/06/05 13:25:02;;;;;;;4.30;3.90;;;26.90;52.40;;;;;;5023297;28;20633;-46
2022/06/05 13:27:49;;;;;;;5.13;4.30;;;26.90;52.60;;;;;;5022924;28;20033;-46
2022/06/05 13:30:17;;;;;;;4.88;4.38;;;26.90;52.30;;;;;;5023835;28;20022;-46
2022/06/05 13:33:39;;;;;;;5.18;4.43;;;26.90;52.20;;;;;;5023917;28;20103;-44
2022/06/05 13:36:33;;;;;;;5.03;3.70;;;26.90;52.40;;;;;;4981498;28;20038;-47
2022/06/05 13:39:06;;;;;;;4.75;3.90;;;26.90;52.30;;;;;;5038399;28;20037;-46
2022/06/05 13:41:46;;;;;;;4.13;3.63;;;26.90;51.50;;;;;;5023773;28;20093;-46
2022/06/05 13:44:16;;;;;;;4.35;3.55;;;27.00;52.20;;;;;;5023068;28;20036;-46
2022/06/05 13:47:03;;;;;;;5.18;3.53;;;27.00;51.80;;;;;;5023628;28;20029;-46